Time;durP1;ratioP1;P1;durP2;ratioP2;P2;SDS_P1;SDS_P2;PMS_P1;PMS_P2;Temp;Humidity;BMP_temperature;BMP_pressure;BME280_temperature;BME280_humidity;BME280_pressure;Samples;Min_cycle;Max_cycle;Signal;HPM_P1;HPM_P2
2023/10/24 00:00:38;;;;;;;31.58;7.47;;;;;;;15.95;63.21;95459.56;5003248;28;20554;-80
2023/10/24 00:03:03;;;;;;;29.88;7.45;;;;;;;15.73;63.36;95428.97;5015624;28;20029;-79
2023/10/24 00:05:29;;;;;;;26.98;8.68;;;;;;;15.72;63.53;95440.75;5015314;28;20463;-80
2023/10/24 00:07:55;;;;;;;27.38;7.18;;;;;;;15.72;64.02;95461.38;5011073;28;20042;-80
2023/10/24 00:10:21;;;;;;;30.83;7.50;;;;;;;15.30;64.40;95435.72;5002296;28;20547;-80
2023/10/24 00:12:46;;;;;;;31.83;7.35;;;;;;;15.38;64.92;95456.41;5009456;28;20026;-80
2023/10/24 00:15:12;;;;;;;25.00;7.80;;;;;;;15.29;64.94;95426.13;4996089;28;20029;-80
2023/10/24 00:17:37;;;;;;;27.08;7.30;;;;;;;15.44;64.86;95441.84;5013555;28;20033;-81
2023/10/24 00:20:03;;;;;;;36.17;7.38;;;;;;;15.29;64.51;95418.09;5026130;28;20255;-80
2023/10/24 00:22:29;;;;;;;33.22;7.80;;;;;;;15.33;64.39;95414.53;5016865;28;20046;-80
2023/10/24 00:24:54;;;;;;;29.98;7.88;;;;;;;15.34;64.53;95415.31;5016148;28;20095;-80
2023/10/24 00:27:20;;;;;;;24.15;8.00;;;;;;;15.24;64.38;95408.31;5016929;28;20061;-80
2023/10/24 00:29:45;;;;;;;30.33;8.68;;;;;;;15.58;64.03;95450.69;5014569;28;20033;-80
2023/10/24 00:32:11;;;;;;;33.20;8.13;;;;;;;15.34;64.01;95413.44;5016475;28;20041;-80
2023/10/24 00:34:37;;;;;;;28.20;7.65;;;;;;;15.48;64.11;95436.72;5015336;28;20479;-80
2023/10/24 00:37:03;;;;;;;30.95;8.55;;;;;;;15.25;64.37;95409.91;5014538;28;20041;-80
2023/10/24 00:39:28;;;;;;;29.60;8.50;;;;;;;15.38;64.70;95454.53;4998165;28;20034;-79
2023/10/24 00:41:54;;;;;;;32.20;8.07;;;;;;;15.35;64.25;95452.44;5021346;28;20041;-79
2023/10/24 00:44:19;;;;;;;28.50;7.53;;;;;;;15.20;64.72;95415.31;5021323;28;20044;-79
2023/10/24 00:46:45;;;;;;;33.50;7.93;;;;;;;14.97;64.48;95381.56;5020963;28;20402;-79
2023/10/24 00:49:10;;;;;;;23.88;8.23;;;;;;;15.14;64.32;95397.81;5013521;28;20292;-78
2023/10/24 00:51:36;;;;;;;34.60;8.82;;;;;;;15.36;64.19;95446.00;5009910;28;20038;-79
2023/10/24 00:54:02;;;;;;;33.65;9.00;;;;;;;15.15;64.51;95423.44;5020694;28;20034;-79
2023/10/24 00:56:31;;;;;;;29.10;9.13;;;;;;;15.02;64.29;95400.19;5020299;28;20049;-79
2023/10/24 00:58:57;;;;;;;40.42;8.32;;;;;;;15.21;64.34;95419.59;5019800;28;20451;-79
2023/10/24 01:01:23;;;;;;;35.42;8.73;;;;;;;15.12;65.08;95423.22;5019075;28;20041;-78
2023/10/24 01:03:49;;;;;;;27.70;8.20;;;;;;;15.02;64.89;95392.97;5037982;28;20101;-79
2023/10/24 01:06:17;;;;;;;29.02;7.60;;;;;;;15.34;64.37;95431.34;5021747;28;20041;-79
2023/10/24 01:08:43;;;;;;;27.10;8.93;;;;;;;15.40;64.30;95452.38;5019439;28;20060;-79
2023/10/24 01:11:09;;;;;;;31.65;8.63;;;;;;;15.42;64.25;95452.84;5020962;28;20041;-79
2023/10/24 01:13:35;;;;;;;23.25;7.53;;;;;;;15.44;64.10;95439.97;5024458;28;20044;-79
2023/10/24 01:16:00;;;;;;;31.88;7.55;;;;;;;15.26;64.45;95430.16;5034453;28;20417;-79
2023/10/24 01:18:26;;;;;;;27.80;7.50;;;;;;;15.39;64.24;95452.66;5020912;28;20030;-78
2023/10/24 01:20:51;;;;;;;31.60;8.27;;;;;;;14.64;64.17;95327.47;5020025;28;20038;-79
2023/10/24 01:23:17;;;;;;;44.47;8.77;;;;;;;15.31;64.20;95440.78;5027700;28;20063;-79
2023/10/24 01:25:43;;;;;;;31.08;7.22;;;;;;;15.30;64.45;95441.06;5053054;28;20034;-79
2023/10/24 01:28:09;;;;;;;34.70;7.80;;;;;;;15.24;64.57;95431.56;5021232;28;20033;-79
2023/10/24 01:30:36;;;;;;;30.67;7.57;;;;;;;15.13;64.70;95430.94;5008943;28;20053;-79
2023/10/24 01:33:02;;;;;;;27.95;6.93;;;;;;;15.03;65.14;95431.91;5001237;28;20058;-79
2023/10/24 01:35:27;;;;;;;23.30;7.20;;;;;;;15.10;64.98;95431.56;5000540;28;20038;-79
2023/10/24 01:37:53;;;;;;;26.00;7.05;;;;;;;14.96;65.14;95428.06;5000626;28;20026;-78
2023/10/24 01:40:18;;;;;;;30.05;7.45;;;;;;;15.11;64.90;95441.13;5018502;28;20042;-79
2023/10/24 01:42:44;;;;;;;26.77;7.85;;;;;;;15.13;64.63;95441.63;5018964;28;20034;-79
2023/10/24 01:45:10;;;;;;;26.83;8.57;;;;;;;14.89;65.27;95416.97;5004684;28;20611;-79
2023/10/24 01:47:35;;;;;;;28.25;7.03;;;;;;;14.76;65.91;95415.06;5018227;28;20053;-79
2023/10/24 01:50:01;;;;;;;26.52;7.43;;;;;;;14.72;65.78;95406.88;5016817;28;20033;-79
2023/10/24 01:52:26;;;;;;;31.95;8.25;;;;;;;14.81;65.82;95423.78;5017857;28;20137;-79
2023/10/24 01:54:52;;;;;;;33.95;7.60;;;;;;;14.82;65.65;95438.72;5017331;28;20607;-79
2023/10/24 01:57:17;;;;;;;27.92;7.50;;;;;;;14.66;66.03;95411.47;5018952;28;20033;-79
2023/10/24 01:59:43;;;;;;;19.58;6.50;;;;;;;14.77;65.82;95422.00;5027676;28;20061;-79
2023/10/24 02:02:08;;;;;;;27.73;8.05;;;;;;;14.87;65.87;95435.97;5032125;28;20038;-79
2023/10/24 02:04:34;;;;;;;37.40;7.68;;;;;;;14.82;65.77;95432.56;5022971;28;20587;-79
2023/10/24 02:06:59;;;;;;;39.35;8.35;;;;;;;14.73;65.50;95416.44;5014767;28;20048;-79
2023/10/24 02:09:24;;;;;;;21.17;7.35;;;;;;;14.51;65.65;95365.56;5016416;28;20038;-81
2023/10/24 02:11:50;;;;;;;24.88;7.78;;;;;;;14.33;65.56;95345.84;4994495;28;20092;-81
2023/10/24 02:14:15;;;;;;;28.52;7.45;;;;;;;14.64;65.44;95389.66;4998864;28;20093;-81
2023/10/24 02:16:41;;;;;;;34.95;8.68;;;;;;;14.83;65.46;95408.25;5011076;28;20527;-81
2023/10/24 02:19:06;;;;;;;30.85;8.55;;;;;;;14.81;65.52;95421.09;5013104;28;20113;-81
2023/10/24 02:21:32;;;;;;;27.73;7.68;;;;;;;14.42;65.28;95362.03;5015288;28;20038;-81
2023/10/24 02:23:57;;;;;;;30.90;8.13;;;;;;;14.79;65.80;95419.84;5015129;28;20112;-81
2023/10/24 02:26:23;;;;;;;25.83;9.05;;;;;;;14.78;65.89;95431.59;5015395;28;20092;-81
2023/10/24 02:28:48;;;;;;;29.33;7.45;;;;;;;14.58;65.68;95412.16;5015124;28;20022;-81
2023/10/24 02:31:14;;;;;;;25.90;7.50;;;;;;;14.53;66.04;95406.91;5008888;28;20400;-81
2023/10/24 02:33:40;;;;;;;36.15;8.48;;;;;;;14.67;65.81;95413.06;5002016;28;20096;-81
2023/10/24 02:36:10;;;;;;;34.65;8.75;;;;;;;14.35;65.59;95362.34;5013101;28;20571;-81
2023/10/24 02:38:36;;;;;;;28.75;7.90;;;;;;;14.52;65.57;95386.63;5004959;28;20030;-81
2023/10/24 02:41:01;;;;;;;39.58;8.40;;;;;;;14.65;65.60;95428.56;5003399;28;20034;-81
2023/10/24 02:43:27;;;;;;;29.30;7.88;;;;;;;14.50;66.19;95415.50;5015137;28;20030;-81
2023/10/24 02:45:54;;;;;;;33.10;8.93;;;;;;;14.48;65.81;95414.22;5014501;28;20045;-82
2023/10/24 02:48:19;;;;;;;32.78;9.45;;;;;;;13.97;65.85;95337.63;5013720;28;20037;-81
2023/10/24 02:50:51;;;;;;;42.22;8.73;;;;;;;14.16;65.44;95362.41;5014962;28;20072;-81
2023/10/24 02:53:16;;;;;;;29.10;8.60;;;;;;;14.35;65.66;95401.56;5013252;28;20758;-81
2023/10/24 02:55:42;;;;;;;26.85;8.00;;;;;;;14.19;65.66;95377.00;5013477;28;20038;-81
2023/10/24 02:58:07;;;;;;;22.60;8.20;;;;;;;14.46;66.54;95448.41;5013362;28;20503;-81
2023/10/24 03:00:32;;;;;;;29.48;8.85;;;;;;;14.23;65.95;95413.50;5014176;28;20084;-80
2023/10/24 03:02:58;;;;;;;31.73;9.27;;;;;;;14.53;65.93;95464.81;5002997;28;20033;-80
2023/10/24 03:05:23;;;;;;;27.52;8.55;;;;;;;14.54;66.23;95456.53;5017539;28;20042;-80
2023/10/24 03:07:49;;;;;;;31.40;7.93;;;;;;;14.53;65.91;95465.63;5007756;28;20041;-80
2023/10/24 03:10:14;;;;;;;29.50;8.80;;;;;;;14.49;65.96;95464.63;5011769;28;21188;-80
2023/10/24 03:12:40;;;;;;;31.88;10.07;;;;;;;14.34;65.94;95443.50;5006870;28;20040;-80
2023/10/24 03:15:05;;;;;;;31.85;9.23;;;;;;;14.49;66.27;95471.84;5015148;28;20059;-80
2023/10/24 03:17:31;;;;;;;31.83;10.65;;;;;;;14.35;66.29;95462.94;5016267;28;20029;-79
2023/10/24 03:19:56;;;;;;;28.75;7.97;;;;;;;14.26;66.32;95479.63;5013499;28;20481;-81
2023/10/24 03:22:22;;;;;;;27.17;8.45;;;;;;;14.12;67.06;95465.38;5011567;28;20034;-81
2023/10/24 03:24:49;;;;;;;30.98;9.65;;;;;;;14.15;66.60;95472.81;5012655;28;20476;-81
2023/10/24 03:27:14;;;;;;;28.55;8.38;;;;;;;14.13;67.19;95480.31;5012730;28;20038;-81
2023/10/24 03:29:40;;;;;;;28.73;9.55;;;;;;;13.41;66.83;95382.94;5012680;28;20061;-81
2023/10/24 03:32:06;;;;;;;34.13;10.68;;;;;;;13.85;67.35;95449.25;5012663;28;20026;-81
2023/10/24 03:34:35;;;;;;;35.08;9.05;;;;;;;14.09;67.08;95486.53;5013320;28;20034;-81
2023/10/24 03:37:01;;;;;;;26.67;8.82;;;;;;;13.65;66.95;95409.53;5013287;28;20034;-81
2023/10/24 03:39:26;;;;;;;30.23;9.60;;;;;;;13.90;67.46;95462.50;5014675;28;20030;-81
2023/10/24 03:41:52;;;;;;;34.33;9.15;;;;;;;13.98;67.31;95488.53;5015953;28;20113;-81
2023/10/24 03:44:17;;;;;;;38.83;9.52;;;;;;;13.80;67.27;95450.13;5021114;28;20504;-81
2023/10/24 03:46:43;;;;;;;40.53;9.02;;;;;;;13.94;66.96;95465.41;5021481;28;20121;-81
2023/10/24 03:49:08;;;;;;;31.10;9.45;;;;;;;14.14;66.92;95489.91;5020039;28;20418;-81
2023/10/24 03:51:34;;;;;;;38.65;9.50;;;;;;;14.16;66.90;95492.28;5014653;28;20033;-82
2023/10/24 03:53:59;;;;;;;39.22;10.13;;;;;;;13.97;66.71;95462.13;5013611;28;20120;-81
2023/10/24 03:56:26;;;;;;;34.15;9.93;;;;;;;13.96;66.54;95461.34;5014747;28;20030;-81
2023/10/24 03:58:52;;;;;;;30.50;9.68;;;;;;;14.13;66.47;95482.97;5014553;28;20030;-81
2023/10/24 04:01:17;;;;;;;43.45;12.02;;;;;;;14.08;66.08;95491.06;5000634;28;20561;-81
2023/10/24 04:03:43;;;;;;;41.53;9.32;;;;;;;14.03;66.81;95496.47;5007153;28;20049;-81
2023/10/24 04:06:10;;;;;;;34.97;8.85;;;;;;;13.96;66.88;95496.00;5012430;28;20034;-82
2023/10/24 04:08:36;;;;;;;25.10;10.10;;;;;;;13.73;67.08;95468.31;5012585;28;20041;-81
2023/10/24 04:11:03;;;;;;;42.78;10.13;;;;;;;13.79;66.61;95471.72;5014514;28;20068;-79
2023/10/24 04:13:28;;;;;;;28.15;9.35;;;;;;;14.01;66.90;95489.84;5002992;28;20485;-78
2023/10/24 04:16:00;;;;;;;36.67;10.10;;;;;;;14.02;66.80;95499.44;5015067;28;20085;-78
2023/10/24 04:18:28;;;;;;;33.67;10.10;;;;;;;13.89;66.44;95471.56;5016396;28;20022;-78
2023/10/24 04:20:54;;;;;;;31.45;10.55;;;;;;;13.96;66.39;95487.25;5013236;28;20175;-78
2023/10/24 04:23:19;;;;;;;44.70;10.00;;;;;;;13.86;66.63;95475.63;5005437;28;20093;-78
2023/10/24 04:25:45;;;;;;;33.60;10.68;;;;;;;13.98;66.50;95493.06;5006807;28;20041;-79
2023/10/24 04:28:11;;;;;;;41.95;10.85;;;;;;;13.83;66.34;95465.53;5007308;28;20038;-79
2023/10/24 04:30:41;;;;;;;36.78;10.80;;;;;;;13.77;66.72;95495.19;4994068;28;20094;-79
2023/10/24 04:33:07;;;;;;;35.65;10.65;;;;;;;13.54;67.36;95467.50;4986841;28;20029;-80
2023/10/24 04:35:40;;;;;;;35.92;10.93;;;;;;;13.88;66.69;95518.00;5001051;28;20034;-79
2023/10/24 04:38:06;;;;;;;44.92;10.90;;;;;;;13.95;66.65;95514.97;5005361;28;20087;-79
2023/10/24 04:40:31;;;;;;;39.67;10.45;;;;;;;13.50;66.11;95429.94;4999104;28;20342;-79
2023/10/24 04:42:57;;;;;;;39.35;10.27;;;;;;;13.91;66.57;95514.75;5006611;28;20610;-79
2023/10/24 04:45:22;;;;;;;44.78;11.52;;;;;;;13.87;66.67;95529.75;4999201;28;20150;-79
2023/10/24 04:47:48;;;;;;;38.17;10.77;;;;;;;13.78;66.57;95518.91;4984924;28;21398;-79
2023/10/24 04:50:14;;;;;;;34.92;9.02;;;;;;;13.82;66.24;95524.44;4991424;28;20044;-80
2023/10/24 04:52:40;;;;;;;33.17;9.98;;;;;;;13.74;65.94;95487.75;4996050;28;20044;-80
2023/10/24 04:55:06;;;;;;;40.38;9.35;;;;;;;14.02;65.75;95526.88;4979646;28;20034;-79
2023/10/24 04:57:31;;;;;;;41.92;10.50;;;;;;;13.82;66.07;95521.78;4985467;28;20097;-79
2023/10/24 04:59:58;;;;;;;40.78;10.15;;;;;;;13.72;65.77;95504.06;5006045;28;20469;-79
2023/10/24 05:02:24;;;;;;;50.88;11.60;;;;;;;13.88;65.61;95528.66;5011183;28;20041;-79
2023/10/24 05:04:49;;;;;;;39.83;10.32;;;;;;;14.04;65.60;95545.25;5010417;28;20037;-80
2023/10/24 05:07:15;;;;;;;35.80;10.27;;;;;;;14.03;65.43;95555.13;5001443;28;20033;-80
2023/10/24 05:09:40;;;;;;;45.78;10.38;;;;;;;14.00;65.31;95553.03;5001786;28;20061;-79
2023/10/24 05:12:06;;;;;;;30.58;10.55;;;;;;;13.89;65.62;95527.56;5012412;28;20103;-79
2023/10/24 05:14:31;;;;;;;44.58;11.68;;;;;;;13.96;65.66;95554.66;5016987;28;20106;-80
2023/10/24 05:16:57;;;;;;;32.53;9.02;;;;;;;13.71;66.08;95518.47;5012828;28;20034;-79
2023/10/24 05:19:22;;;;;;;34.15;9.40;;;;;;;13.69;66.13;95519.81;5020803;28;20053;-79
2023/10/24 05:21:48;;;;;;;35.88;9.65;;;;;;;13.82;66.63;95572.44;4988629;28;20101;-79
2023/10/24 05:24:13;;;;;;;29.55;9.68;;;;;;;13.61;67.47;95549.75;4994602;28;20125;-79
2023/10/24 05:26:38;;;;;;;41.92;11.40;;;;;;;13.76;67.04;95557.59;5006962;28;20060;-80
2023/10/24 05:29:04;;;;;;;35.95;10.23;;;;;;;13.93;66.88;95578.47;5008520;28;20042;-79
2023/10/24 05:31:29;;;;;;;36.90;10.75;;;;;;;13.88;66.67;95552.66;5010659;28;20109;-79
2023/10/24 05:33:55;;;;;;;36.88;9.77;;;;;;;13.92;66.55;95567.00;5012317;28;20025;-79
2023/10/24 05:36:20;;;;;;;40.58;10.50;;;;;;;13.92;66.73;95561.66;5005513;28;20129;-80
2023/10/24 05:38:46;;;;;;;40.17;9.38;;;;;;;13.83;66.37;95545.50;5016104;28;20049;-80
2023/10/24 05:41:11;;;;;;;43.17;10.05;;;;;;;14.03;66.45;95565.81;5044171;28;20038;-80
2023/10/24 05:43:39;;;;;;;37.30;10.80;;;;;;;13.99;66.88;95579.97;5020804;28;20400;-79
2023/10/24 05:46:05;;;;;;;27.98;10.02;;;;;;;13.83;66.14;95526.84;5012145;28;20105;-79
2023/10/24 05:48:31;;;;;;;52.45;10.48;;;;;;;14.06;65.81;95561.75;5016265;28;20075;-78
2023/10/24 05:50:57;;;;;;;36.17;11.23;;;;;;;13.51;66.24;95478.69;5019728;28;20038;-79
2023/10/24 05:53:23;;;;;;;40.10;11.70;;;;;;;14.21;66.27;95580.25;5018440;28;20560;-79
2023/10/24 05:55:48;;;;;;;35.25;10.10;;;;;;;14.27;66.49;95576.41;5022246;28;20057;-79
2023/10/24 05:58:14;;;;;;;37.78;10.77;;;;;;;14.32;66.46;95573.72;5021890;28;20060;-79
2023/10/24 06:00:44;;;;;;;29.13;10.77;;;;;;;14.00;66.38;95533.56;5015862;28;20080;-80
2023/10/24 06:03:10;;;;;;;31.90;10.05;;;;;;;14.00;66.03;95498.91;5007141;28;20030;-79
2023/10/24 06:05:36;;;;;;;31.52;9.82;;;;;;;14.10;66.07;95510.25;5020589;28;20026;-78
2023/10/24 06:08:02;;;;;;;32.33;10.38;;;;;;;14.53;65.90;95577.72;5019682;28;20790;-78
2023/10/24 06:10:27;;;;;;;38.70;11.20;;;;;;;14.61;65.77;95576.28;5006567;28;20094;-78
2023/10/24 06:12:53;;;;;;;47.55;12.32;;;;;;;14.59;65.87;95581.09;5005062;28;20033;-80
2023/10/24 06:15:18;;;;;;;46.33;12.15;;;;;;;14.61;65.87;95576.28;5004293;28;20119;-79
2023/10/24 06:17:43;;;;;;;41.35;12.50;;;;;;;14.53;65.66;95571.56;5020168;28;20038;-78
2023/10/24 06:20:09;;;;;;;51.25;13.60;;;;;;;14.17;65.79;95539.22;5017116;28;20042;-79
2023/10/24 06:22:35;;;;;;;47.33;13.63;;;;;;;14.34;65.20;95566.22;5007694;28;20341;-79
2023/10/24 06:25:00;;;;;;;45.05;12.07;;;;;;;14.35;65.44;95565.09;5007833;28;20041;-79
2023/10/24 06:27:26;;;;;;;44.63;13.38;;;;;;;14.29;64.85;95544.91;5019463;28;20026;-79
2023/10/24 06:29:52;;;;;;;49.22;12.80;;;;;;;14.43;64.48;95550.34;5007415;28;20038;-79
2023/10/24 06:32:17;;;;;;;60.72;13.85;;;;;;;14.53;64.49;95545.69;5008326;28;20120;-79
2023/10/24 06:34:43;;;;;;;40.10;12.52;;;;;;;14.78;63.97;95581.09;5013128;28;20044;-80
2023/10/24 06:37:08;;;;;;;56.55;13.30;;;;;;;14.75;63.83;95553.09;5012320;28;20033;-79
2023/10/24 06:39:34;;;;;;;35.72;12.95;;;;;;;14.97;63.45;95579.19;5011998;28;20045;-79
2023/10/24 06:41:59;;;;;;;39.50;12.60;;;;;;;14.78;63.33;95560.53;5010984;28;20037;-78
2023/10/24 06:44:27;;;;;;;41.08;12.60;;;;;;;14.91;63.23;95578.50;5019099;28;20124;-79
2023/10/24 06:46:52;;;;;;;44.08;12.68;;;;;;;14.85;63.04;95542.28;5012849;28;20049;-78
2023/10/24 06:49:18;;;;;;;40.17;12.95;;;;;;;14.87;62.84;95534.78;5012365;28;20136;-79
2023/10/24 06:51:43;;;;;;;43.58;14.18;;;;;;;14.70;62.67;95507.81;5012995;28;20038;-79
2023/10/24 06:54:09;;;;;;;52.25;14.65;;;;;;;15.02;62.64;95553.22;5016144;28;20088;-79
2023/10/24 06:56:35;;;;;;;46.83;14.82;;;;;;;15.11;62.78;95561.34;5015755;28;20106;-79
2023/10/24 06:59:00;;;;;;;54.15;15.02;;;;;;;15.19;62.36;95573.22;5020073;28;20338;-79
2023/10/24 07:01:26;;;;;;;47.40;15.93;;;;;;;15.02;62.42;95547.09;5014342;28;20057;-79
2023/10/24 07:03:51;;;;;;;45.08;14.45;;;;;;;14.97;62.31;95537.25;5016720;28;20321;-80
2023/10/24 07:06:16;;;;;;;48.58;13.88;;;;;;;15.15;62.32;95566.91;5018636;28;20689;-80
2023/10/24 07:08:42;;;;;;;56.90;13.88;;;;;;;15.06;62.78;95558.75;5013637;28;20042;-80
2023/10/24 07:11:08;;;;;;;40.60;13.15;;;;;;;14.98;62.54;95528.16;5001822;28;20026;-79
2023/10/24 07:13:37;;;;;;;41.22;14.35;;;;;;;15.02;62.45;95518.50;5013133;28;20041;-80
2023/10/24 07:16:14;;;;;;;46.40;12.77;;;;;;;15.13;62.04;95521.78;5017627;28;20734;-80
2023/10/24 07:18:39;;;;;;;46.65;13.25;;;;;;;15.30;62.04;95526.56;5020424;28;20166;-80
2023/10/24 07:21:05;;;;;;;40.15;12.63;;;;;;;15.36;61.87;95518.16;5019227;28;20042;-79
2023/10/24 07:23:30;;;;;;;35.40;12.60;;;;;;;15.41;61.92;95511.91;5018904;28;20103;-81
2023/10/24 07:25:57;;;;;;;37.95;13.20;;;;;;;15.66;61.49;95542.78;5020674;28;20141;-80
2023/10/24 07:28:22;;;;;;;45.00;13.38;;;;;;;15.73;61.25;95532.47;5021365;28;20030;-79
2023/10/24 07:30:51;;;;;;;41.92;12.32;;;;;;;15.79;61.05;95539.34;5021092;28;20369;-79
2023/10/24 07:33:18;;;;;;;52.45;13.38;;;;;;;15.58;60.57;95495.34;5020103;28;20566;-80
2023/10/24 07:35:46;;;;;;;51.40;13.85;;;;;;;15.45;60.98;95464.81;5014090;28;20030;-80
2023/10/24 07:38:12;;;;;;;46.70;14.50;;;;;;;15.87;61.13;95535.16;5019138;28;20034;-79
2023/10/24 07:40:39;;;;;;;62.08;16.83;;;;;;;15.87;60.89;95513.78;5018673;28;20431;-80
2023/10/24 07:43:04;;;;;;;35.65;11.18;;;;;;;16.07;60.68;95526.72;5019398;28;20101;-80
2023/10/24 07:45:30;;;;;;;44.92;12.18;;;;;;;16.22;60.16;95531.75;5017876;28;20077;-80
2023/10/24 07:47:56;;;;;;;53.92;13.52;;;;;;;16.18;60.38;95518.16;5010974;28;20037;-79
2023/10/24 07:50:21;;;;;;;38.97;12.68;;;;;;;16.17;60.30;95510.47;5012374;28;20037;-81
2023/10/24 07:52:47;;;;;;;44.70;12.07;;;;;;;16.41;59.65;95526.25;4998148;28;21108;-79
2023/10/24 07:55:13;;;;;;;49.88;13.43;;;;;;;16.43;59.52;95529.44;5016863;28;20061;-80
2023/10/24 07:57:38;;;;;;;38.60;12.70;;;;;;;16.37;59.07;95491.28;5014700;28;20038;-80
2023/10/24 08:00:07;;;;;;;37.85;10.88;;;;;;;16.67;58.74;95513.13;5019696;28;20127;-80
2023/10/24 08:02:33;;;;;;;40.78;10.85;;;;;;;16.67;58.53;95491.69;4995691;28;20095;-80
2023/10/24 08:04:58;;;;;;;48.90;11.55;;;;;;;16.71;58.41;95509.53;5002367;28;20030;-80
2023/10/24 08:07:24;;;;;;;41.72;12.55;;;;;;;16.40;58.81;95490.66;5010836;28;20049;-80
2023/10/24 08:09:49;;;;;;;40.30;12.38;;;;;;;16.38;59.44;95503.56;5011865;28;20120;-80
2023/10/24 08:12:15;;;;;;;40.88;11.68;;;;;;;16.70;59.07;95521.34;5012314;28;20428;-81
2023/10/24 08:14:40;;;;;;;41.13;12.20;;;;;;;16.85;58.88;95518.31;5018222;28;20034;-79
2023/10/24 08:17:06;;;;;;;38.97;14.30;;;;;;;16.70;58.57;95499.94;5018441;28;20033;-80
2023/10/24 08:19:31;;;;;;;49.17;12.55;;;;;;;16.63;58.84;95490.75;5014074;28;20038;-80
2023/10/24 08:21:56;;;;;;;46.10;12.25;;;;;;;16.79;58.90;95513.38;5007931;28;20540;-80
2023/10/24 08:24:23;;;;;;;39.63;12.73;;;;;;;16.86;58.29;95493.09;5017719;28;20048;-80
2023/10/24 08:26:48;;;;;;;33.95;10.75;;;;;;;17.03;57.81;95491.63;5020889;28;20044;-80
2023/10/24 08:29:14;;;;;;;38.53;10.95;;;;;;;17.09;57.82;95479.69;5016451;28;20034;-80
2023/10/24 08:31:39;;;;;;;40.80;11.15;;;;;;;17.15;57.48;95473.91;5014796;28;20021;-80
2023/10/24 08:34:05;;;;;;;42.72;11.73;;;;;;;17.21;57.07;95470.00;5019443;28;20030;-80
2023/10/24 08:36:30;;;;;;;36.83;12.50;;;;;;;17.32;56.74;95478.53;5015422;28;20125;-80
2023/10/24 08:38:56;;;;;;;44.45;12.07;;;;;;;17.44;56.71;95477.97;5012990;28;20052;-79
2023/10/24 08:41:22;;;;;;;41.60;11.70;;;;;;;17.53;56.34;95462.72;5011322;28;20029;-80
2023/10/24 08:43:49;;;;;;;41.97;10.23;;;;;;;17.79;55.69;95485.06;5017848;28;20151;-80
2023/10/24 08:46:15;;;;;;;41.38;10.43;;;;;;;17.58;55.44;95446.47;5018629;28;20113;-80
2023/10/24 08:48:40;;;;;;;34.08;10.23;;;;;;;17.84;55.11;95439.34;5017501;28;20029;-80
2023/10/24 08:51:21;;;;;;;48.65;8.90;;;;;;;17.64;54.55;95381.69;4983288;28;20106;-79
2023/10/24 08:53:47;;;;;;;41.97;9.35;;;;;;;18.31;54.10;95477.13;4996946;28;20040;-80
2023/10/24 08:56:13;;;;;;;30.38;8.73;;;;;;;18.26;53.54;95447.75;5023950;28;20026;-80
2023/10/24 08:58:40;;;;;;;27.77;7.72;;;;;;;18.40;53.46;95472.53;5014829;28;20188;-80
2023/10/24 09:01:07;;;;;;;45.95;9.25;;;;;;;18.28;53.36;95432.13;5022645;28;20073;-80
2023/10/24 09:03:33;;;;;;;26.05;8.35;;;;;;;18.63;52.85;95455.19;5022576;28;20338;-80
2023/10/24 09:06:01;;;;;;;34.28;7.95;;;;;;;18.59;51.82;95445.41;5014424;28;20030;-80
2023/10/24 09:08:26;;;;;;;30.85;7.28;;;;;;;18.95;51.73;95455.78;5004633;28;20060;-79
2023/10/24 09:10:52;;;;;;;41.10;10.90;;;;;;;18.89;50.93;95441.72;4999823;28;20038;-80
2023/10/24 09:13:18;;;;;;;36.92;7.15;;;;;;;18.81;51.12;95434.47;5003347;28;20123;-79
2023/10/24 09:15:43;;;;;;;31.80;7.47;;;;;;;18.83;50.78;95395.44;5008451;28;20033;-79
2023/10/24 09:18:09;;;;;;;32.08;7.15;;;;;;;19.11;50.11;95414.63;5018956;28;20045;-80
2023/10/24 09:20:35;;;;;;;40.05;9.65;;;;;;;19.23;49.87;95425.50;5010483;28;20045;-80
2023/10/24 09:23:06;;;;;;;33.50;7.97;;;;;;;19.21;50.59;95432.31;5000037;28;20038;-80
2023/10/24 09:25:32;;;;;;;40.23;8.60;;;;;;;18.99;50.71;95401.09;5009404;28;20042;-79
2023/10/24 09:28:21;;;;;;;42.97;10.00;;;;;;;19.08;50.10;95387.59;5000714;28;20044;-79
2023/10/24 09:30:53;;;;;;;35.92;8.48;;;;;;;19.48;49.75;95436.50;5030887;28;20041;-79
2023/10/24 09:33:19;;;;;;;36.47;8.40;;;;;;;19.31;49.76;95423.88;5001508;28;20037;-80
2023/10/24 09:35:44;;;;;;;36.33;7.93;;;;;;;19.29;50.03;95426.13;5003151;28;20025;-79
2023/10/24 09:38:10;;;;;;;33.28;8.18;;;;;;;19.41;49.53;95431.59;4998652;28;21117;-79
2023/10/24 09:40:37;;;;;;;32.15;8.00;;;;;;;19.26;49.91;95399.88;4998016;28;20473;-79
2023/10/24 09:43:12;;;;;;;35.50;7.68;;;;;;;19.58;49.11;95412.75;5007349;28;20362;-79
2023/10/24 09:45:44;;;;;;;42.20;8.38;;;;;;;19.26;48.68;95335.34;5003938;28;20556;-80
2023/10/24 09:48:10;;;;;;;;;;;;;;;19.89;47.92;95423.16;5010362;28;20034;-80
2023/10/24 09:50:40;;;;;;;30.08;8.93;;;;;;;20.11;48.12;95423.97;5017093;28;19926;-81
2023/10/24 09:53:06;;;;;;;29.05;7.38;;;;;;;19.93;47.37;95375.63;5005776;28;20104;-80
2023/10/24 09:55:41;;;;;;;29.85;7.80;;;;;;;19.77;46.34;95280.44;5006495;28;20747;-80
2023/10/24 09:58:09;;;;;;;32.95;7.53;;;;;;;21.00;45.40;95417.97;5015115;28;20033;-81
2023/10/24 10:00:35;;;;;;;28.85;7.03;;;;;;;21.29;44.45;95381.97;5017723;28;20054;-81
2023/10/24 10:03:03;;;;;;;41.80;9.38;;;;;;;21.99;43.36;95416.97;5016737;28;20038;-80
2023/10/24 10:05:30;;;;;;;34.10;7.97;;;;;;;22.49;42.34;95405.72;5016370;28;20042;-81
2023/10/24 10:07:57;;;;;;;44.85;8.73;;;;;;;22.86;41.21;95387.44;5012099;28;20029;-80
2023/10/24 10:10:27;;;;;;;29.80;8.18;;;;;;;23.36;40.54;95403.81;5015636;28;20029;-81
2023/10/24 10:12:59;;;;;;;37.10;10.20;;;;;;;23.54;39.99;95396.16;5025190;28;20074;-81
2023/10/24 10:15:50;;;;;;;34.85;9.75;;;;;;;23.93;39.25;95396.28;5033060;28;20029;-81
2023/10/24 10:18:34;;;;;;;32.38;8.15;;;;;;;24.19;38.63;95391.03;5010601;28;20089;-81
2023/10/24 10:21:33;;;;;;;42.38;9.13;;;;;;;24.21;38.75;95383.38;5013429;28;20465;-82
2023/10/24 10:24:15;;;;;;;34.80;8.27;;;;;;;24.27;38.22;95354.84;5005676;28;20046;-81
2023/10/24 10:27:09;;;;;;;42.08;8.27;;;;;;;24.20;38.71;95379.88;5000207;28;20471;-81
2023/10/24 10:30:13;;;;;;;29.45;8.48;;;;;;;24.33;38.36;95383.25;4995581;28;20058;-81
2023/10/24 10:32:45;;;;;;;36.38;7.57;;;;;;;24.10;38.01;95325.47;4969639;28;20049;-81
2023/10/24 10:35:12;;;;;;;30.10;8.43;;;;;;;24.43;37.86;95363.69;5006556;28;20041;-81
2023/10/24 10:37:39;;;;;;;39.13;7.55;;;;;;;24.54;37.51;95358.50;5009209;28;20034;-81
2023/10/24 10:40:14;;;;;;;32.75;7.60;;;;;;;24.46;37.36;95360.28;5006324;28;20038;-81
2023/10/24 10:42:49;;;;;;;29.23;7.22;;;;;;;23.69;38.29;95332.28;5018943;28;20072;-81
2023/10/24 10:45:24;;;;;;;24.25;7.15;;;;;;;23.79;38.39;95313.59;5009671;28;20128;-80
2023/10/24 10:47:51;;;;;;;31.40;8.00;;;;;;;24.27;38.06;95341.31;5007500;28;20865;-81
2023/10/24 10:50:28;;;;;;;34.85;7.57;;;;;;;24.26;37.62;95326.19;5000017;28;20094;-81
2023/10/24 10:53:13;;;;;;;28.23;7.40;;;;;;;24.25;38.19;95337.41;5003809;28;20085;-80
2023/10/24 10:56:01;;;;;;;27.08;7.15;;;;;;;24.42;37.60;95326.09;5001380;28;20467;-80
2023/10/24 10:58:42;;;;;;;31.80;7.10;;;;;;;24.10;37.63;95304.56;5018434;28;20591;-80
2023/10/24 11:01:46;;;;;;;41.95;6.75;;;;;;;24.49;37.61;95318.09;5021366;28;20053;-80
2023/10/24 11:04:14;;;;;;;31.17;7.43;;;;;;;24.47;37.23;95296.00;4998097;28;20507;-81
2023/10/24 11:06:57;;;;;;;28.90;7.20;;;;;;;24.52;37.02;95306.56;5006131;28;20188;-81
2023/10/24 11:09:44;;;;;;;27.15;6.55;;;;;;;24.53;36.99;95289.94;4993162;28;20041;-79
2023/10/24 11:12:21;;;;;;;33.67;6.65;;;;;;;24.75;36.48;95295.75;5011367;28;20139;-80
2023/10/24 11:15:06;;;;;;;30.63;7.03;;;;;;;24.78;36.59;95286.88;5005985;28;20672;-79
2023/10/24 11:17:31;;;;;;;33.10;7.22;;;;;;;24.84;36.41;95280.81;5010976;28;20061;-79
2023/10/24 11:20:02;;;;;;;22.10;6.10;;;;;;;24.64;36.44;95268.44;5004620;28;20037;-80
2023/10/24 11:22:31;;;;;;;30.05;6.93;;;;;;;24.63;36.28;95241.69;5013087;28;20038;-80